Portada
METAR-TAF:

METAR-TAF

Aeroports :

Yamagata, Japó

latitud: 38-25N, longitud: 140-22E, altitud: 105 m

Observació

L'informe es va fer fa 1 hora i 3 minuts, a les 01:00 UTC
Vent 3 kt amb direcció variable
Temperatura 21°C
Humitat 53%
Pressió 1015 hPa
Visibilitat 10 km o més
Escasses núvols a una alçada de 4000 ft
Núvols disperses a una alçada de 5000 ft

METAR: RJSC 190100Z VRB03KT 9999 FEW040 SCT050 21/11 Q1015

Hora: 11:03 (02:03 UTC)


TAF: manca

Observacions i pronòstics meteorològics de més de 4000 aeroports (METAR i TAF).

Les estacions disponibles són els punts grocs i vermells al mapa.

Posi el ratolí al punt desitjat per veure el nom de l'estació.

Feu clic per veure les observacions i els pronòstics meteorològics.

Per canviar el mapa: feu clic els botons verds amb una creu de color negre per apropar; al botó verd amb un guió per allunyar la imatge; o en les fletxes verdes per a mapes adjacents.


METAR-TAF: